Time;durP1;ratioP1;P1;durP2;ratioP2;P2;SDS_P1;SDS_P2;PMS_P1;PMS_P2;Temp;Humidity;BMP_temperature;BMP_pressure;BME280_temperature;BME280_humidity;BME280_pressure;Samples;Min_cycle;Max_cycle;Signal;HPM_P1;HPM_P2
2023/02/04 00:00:17;;;;;;;5.00;3.83;;;;;;;2.65;100.00;97688.69;5050898;28;20217;-68
2023/02/04 00:02:45;;;;;;;6.20;3.60;;;;;;;2.64;100.00;97687.03;5060392;28;20479;-68
2023/02/04 00:05:13;;;;;;;8.27;4.73;;;;;;;2.59;100.00;97693.47;5069484;28;20198;-66
2023/02/04 00:07:41;;;;;;;9.63;3.87;;;;;;;2.56;100.00;97698.94;5019553;28;20199;-66
2023/02/04 00:10:09;;;;;;;8.77;3.60;;;;;;;2.54;100.00;97700.84;5068534;28;20226;-67
2023/02/04 00:12:38;;;;;;;6.90;3.67;;;;;;;2.51;100.00;97695.03;5049872;28;20201;-66
2023/02/04 00:15:06;;;;;;;8.83;3.77;;;;;;;2.46;100.00;97704.06;5058447;28;20205;-66
2023/02/04 00:17:34;;;;;;;11.93;4.37;;;;;;;2.50;100.00;97703.81;5064622;28;20351;-66
2023/02/04 00:20:02;;;;;;;9.33;3.67;;;;;;;2.58;100.00;97704.88;5072234;28;20210;-69
2023/02/04 00:22:29;;;;;;;17.23;4.53;;;;;;;2.54;100.00;97705.25;5021605;28;20213;-64
2023/02/04 00:24:57;;;;;;;5.30;4.07;;;;;;;2.58;100.00;97707.50;5064462;28;20398;-64
2023/02/04 00:27:24;;;;;;;5.27;3.87;;;;;;;2.59;100.00;97710.94;5049233;28;20423;-65
2023/02/04 00:29:53;;;;;;;11.00;4.53;;;;;;;2.58;100.00;97707.50;5050333;28;20230;-66
2023/02/04 00:32:21;;;;;;;11.77;4.10;;;;;;;2.58;100.00;97712.75;5067859;28;20201;-64
2023/02/04 00:34:48;;;;;;;8.47;3.20;;;;;;;2.59;100.00;97709.16;5064377;28;20210;-65
2023/02/04 00:37:16;;;;;;;8.00;3.50;;;;;;;2.71;100.00;97723.06;5067462;28;20198;-66
2023/02/04 00:39:43;;;;;;;8.03;4.07;;;;;;;2.68;100.00;97725.09;5018822;28;20494;-66
2023/02/04 00:42:11;;;;;;;9.23;3.90;;;;;;;2.67;100.00;97733.88;5069699;28;20206;-65
2023/02/04 00:44:38;;;;;;;6.80;3.30;;;;;;;2.75;100.00;97734.97;5044737;28;20331;-64
2023/02/04 00:47:08;;;;;;;9.03;4.00;;;;;;;2.78;100.00;97741.72;5054543;28;20437;-66
2023/02/04 00:49:35;;;;;;;8.53;3.53;;;;;;;2.67;100.00;97737.34;5068135;28;20210;-64
2023/02/04 00:52:03;;;;;;;11.53;3.97;;;;;;;2.68;100.00;97746.03;5062835;28;20373;-64
2023/02/04 00:54:30;;;;;;;11.17;3.57;;;;;;;2.73;100.00;97754.34;5022311;28;20210;-64
2023/02/04 00:56:58;;;;;;;6.67;3.67;;;;;;;2.69;100.00;97747.69;5069822;28;20521;-65
2023/02/04 00:59:26;;;;;;;9.27;4.70;;;;;;;2.65;100.00;97741.88;5050669;28;20664;-65
2023/02/04 01:01:53;;;;;;;9.57;3.33;;;;;;;2.71;100.00;97744.00;5046458;28;20249;-66
2023/02/04 01:04:22;;;;;;;6.60;3.27;;;;;;;2.68;100.00;97757.34;5067979;28;20206;-63
2023/02/04 01:06:49;;;;;;;5.67;3.37;;;;;;;2.71;100.00;97748.41;5067006;28;20228;-67
2023/02/04 01:09:17;;;;;;;11.87;3.30;;;;;;;2.72;100.00;97771.00;5073006;28;20206;-65
2023/02/04 01:11:45;;;;;;;8.83;2.97;;;;;;;2.77;100.00;97752.31;5029793;28;20241;-65
2023/02/04 01:14:12;;;;;;;9.23;3.97;;;;;;;2.78;100.00;97761.84;5050904;28;20740;-65
2023/02/04 01:16:40;;;;;;;8.20;3.20;;;;;;;2.68;100.00;97759.09;5048001;28;20213;-64
2023/02/04 01:19:08;;;;;;;5.20;3.00;;;;;;;2.71;100.00;97751.84;5068816;28;20773;-64
2023/02/04 01:21:37;;;;;;;7.47;3.10;;;;;;;2.72;100.00;97750.91;5062146;28;20694;-64
2023/02/04 01:24:07;;;;;;;5.60;2.30;;;;;;;2.71;100.00;97749.25;5064425;28;20566;-64
2023/02/04 01:26:34;;;;;;;10.50;2.80;;;;;;;2.66;100.00;97764.47;5027278;28;20621;-64
2023/02/04 01:29:02;;;;;;;4.90;2.83;;;;;;;2.69;100.00;97745.06;5046549;28;20774;-65
2023/02/04 01:31:31;;;;;;;13.23;3.83;;;;;;;2.72;100.00;97756.13;5065512;28;20824;-64
2023/02/04 01:34:00;;;;;;;9.93;3.47;;;;;;;2.60;100.00;97752.69;5045350;28;20212;-64
2023/02/04 01:36:27;;;;;;;8.30;4.13;;;;;;;2.68;100.00;97764.34;5067892;28;21719;-64
2023/02/04 01:38:57;;;;;;;7.83;3.17;;;;;;;2.58;100.00;97759.84;5068776;28;20202;-64
2023/02/04 01:41:25;;;;;;;7.67;3.67;;;;;;;2.59;100.00;97756.25;5047349;28;20263;-64
2023/02/04 01:43:53;;;;;;;7.57;3.20;;;;;;;2.67;100.00;97763.53;5024696;28;20213;-65
2023/02/04 01:46:21;;;;;;;7.90;3.50;;;;;;;2.63;100.00;97754.22;5065759;28;20202;-63
2023/02/04 01:48:48;;;;;;;11.23;3.53;;;;;;;2.51;100.00;97763.88;5048920;28;20610;-64
2023/02/04 01:51:27;;;;;;;4.90;3.17;;;;;;;2.59;100.00;97760.66;5063083;28;20433;-64
2023/02/04 01:53:55;;;;;;;10.77;4.23;;;;;;;2.54;100.00;97771.50;5061988;28;20194;-66
2023/02/04 01:56:25;;;;;;;13.83;3.60;;;;;;;2.46;100.00;97756.38;5060155;28;20613;-64
2023/02/04 01:58:54;;;;;;;6.03;3.20;;;;;;;2.54;100.00;97773.25;5028757;28;20749;-65
2023/02/04 02:01:36;;;;;;;6.83;3.87;;;;;;;2.50;100.00;97779.69;5069633;28;20230;-63
2023/02/04 02:04:05;;;;;;;8.00;3.10;;;;;;;2.46;100.00;97779.06;5049033;28;20218;-64
2023/02/04 02:06:32;;;;;;;10.37;4.27;;;;;;;2.55;100.00;97788.84;5060480;28;20701;-63
2023/02/04 02:09:01;;;;;;;12.20;3.20;;;;;;;2.56;100.00;97787.03;5070133;28;20354;-65
2023/02/04 02:11:30;;;;;;;6.73;3.03;;;;;;;2.46;100.00;97773.84;5064451;28;20753;-63
2023/02/04 02:13:57;;;;;;;8.00;3.10;;;;;;;2.57;100.00;97794.78;5025249;28;20233;-64
2023/02/04 02:16:25;;;;;;;5.70;2.40;;;;;;;2.50;100.00;97796.22;5046270;28;20214;-64
2023/02/04 02:18:53;;;;;;;6.93;2.13;;;;;;;2.49;100.00;97789.31;5047098;28;21501;-65
2023/02/04 02:21:26;;;;;;;3.37;2.33;;;;;;;2.51;100.00;97794.41;5064656;28;20233;-66
2023/02/04 02:23:56;;;;;;;9.17;3.13;;;;;;;2.49;100.00;97802.41;5062454;28;20201;-63
2023/02/04 02:26:24;;;;;;;6.97;2.80;;;;;;;2.54;99.59;97812.50;5070659;28;20211;-63
2023/02/04 02:28:52;;;;;;;6.63;2.90;;;;;;;2.52;98.88;97814.41;5021145;28;20404;-63
2023/02/04 02:31:21;;;;;;;7.23;2.97;;;;;;;2.46;99.97;97811.31;5046203;28;20226;-63
2023/02/04 02:33:49;;;;;;;4.33;2.97;;;;;;;2.42;100.00;97807.25;5042382;28;20761;-64
2023/02/04 02:36:17;;;;;;;5.23;2.20;;;;;;;2.46;99.38;97813.06;5061628;28;20203;-66
2023/02/04 02:38:44;;;;;;;4.33;2.57;;;;;;;2.50;98.57;97803.22;5061365;28;20301;-63
2023/02/04 02:41:13;;;;;;;4.87;2.93;;;;;;;2.49;97.92;97799.78;5064399;28;20511;-64
2023/02/04 02:43:41;;;;;;;4.77;2.20;;;;;;;2.52;96.74;97801.31;5020024;28;20241;-63
2023/02/04 02:46:09;;;;;;;2.97;2.70;;;;;;;2.41;99.20;97799.53;5064305;28;20240;-66
2023/02/04 02:48:36;;;;;;;7.83;2.70;;;;;;;2.40;99.65;97803.09;5045934;28;20210;-63
2023/02/04 02:51:04;;;;;;;5.10;2.37;;;;;;;2.43;98.88;97810.69;5050133;28;20526;-62
2023/02/04 02:53:31;;;;;;;5.40;2.73;;;;;;;2.41;98.70;97812.59;5061281;28;20202;-63
2023/02/04 02:56:03;;;;;;;6.43;2.63;;;;;;;2.48;97.58;97821.66;5072547;28;20860;-64
2023/02/04 02:58:35;;;;;;;8.37;2.87;;;;;;;2.51;97.45;97826.66;5071812;28;20225;-63
2023/02/04 03:01:05;;;;;;;7.17;2.63;;;;;;;2.45;97.85;97817.50;5030839;28;20274;-63
2023/02/04 03:03:34;;;;;;;10.10;3.03;;;;;;;2.44;97.99;97820.22;5048092;28;20296;-63
2023/02/04 03:06:05;;;;;;;8.23;3.40;;;;;;;2.46;98.15;97831.38;5053129;28;20328;-62
2023/02/04 03:08:33;;;;;;;7.17;3.07;;;;;;;2.44;98.28;97835.91;5068089;28;20205;-63
2023/02/04 03:11:00;;;;;;;3.90;2.30;;;;;;;2.45;97.49;97821.88;5066990;28;20232;-64
2023/02/04 03:13:28;;;;;;;5.20;2.83;;;;;;;2.49;96.89;97836.41;5069517;28;20278;-63
2023/02/04 03:15:57;;;;;;;6.63;2.77;;;;;;;2.46;96.55;97841.84;5020699;28;20458;-65
2023/02/04 03:18:25;;;;;;;7.43;2.77;;;;;;;2.43;96.72;97842.09;5043527;28;20414;-62
2023/02/04 03:20:53;;;;;;;5.53;2.33;;;;;;;2.43;96.10;97849.94;5051390;28;20238;-65
2023/02/04 03:23:21;;;;;;;5.03;2.23;;;;;;;2.50;94.75;97851.16;5068548;28;20429;-63
2023/02/04 03:25:48;;;;;;;12.50;4.33;;;;;;;2.44;94.41;97856.81;5070114;28;20193;-65
2023/02/04 03:28:16;;;;;;;8.23;2.40;;;;;;;2.48;94.51;97854.81;5068777;28;20195;-64
2023/02/04 03:30:52;;;;;;;3.70;2.63;;;;;;;2.41;94.90;97871.00;5020655;28;21113;-65
2023/02/04 03:33:21;;;;;;;3.23;2.17;;;;;;;2.37;95.52;97877.41;5069957;28;20303;-63
2023/02/04 03:35:50;;;;;;;7.57;2.73;;;;;;;2.43;94.63;97876.09;5038663;28;20488;-62
2023/02/04 03:38:18;;;;;;;4.00;2.30;;;;;;;2.45;95.46;97895.13;5066522;28;20205;-64
2023/02/04 03:40:46;;;;;;;6.27;3.30;;;;;;;2.39;95.59;97883.34;5053731;28;20419;-65
2023/02/04 03:43:14;;;;;;;5.40;2.20;;;;;;;2.39;95.14;97885.13;5064073;28;20206;-65
2023/02/04 03:45:41;;;;;;;6.40;2.17;;;;;;;2.33;96.24;97896.03;5021964;28;22181;-64
2023/02/04 03:48:12;;;;;;;3.50;2.27;;;;;;;2.33;95.84;97901.28;5067194;28;20297;-63
2023/02/04 03:50:41;;;;;;;6.20;2.27;;;;;;;2.31;97.13;97891.75;5044289;28;20253;-65
2023/02/04 03:53:09;;;;;;;4.63;2.20;;;;;;;2.27;97.50;97890.31;5050470;28;20232;-62
2023/02/04 03:55:36;;;;;;;2.93;1.90;;;;;;;2.23;98.16;97904.56;5065936;28;20206;-62
2023/02/04 03:58:04;;;;;;;6.70;2.63;;;;;;;2.13;99.81;97901.78;5063758;28;20198;-61
2023/02/04 04:00:33;;;;;;;6.87;3.07;;;;;;;2.14;100.00;97900.84;5060431;28;20215;-63
2023/02/04 04:03:01;;;;;;;9.93;2.70;;;;;;;2.08;100.00;97906.53;5027447;28;20503;-64
2023/02/04 04:05:28;;;;;;;4.20;2.20;;;;;;;2.16;100.00;97917.25;5046890;28;20563;-63
2023/02/04 04:07:57;;;;;;;7.03;2.40;;;;;;;2.18;100.00;97922.38;5048957;28;20796;-63
2023/02/04 04:10:25;;;;;;;6.20;2.60;;;;;;;2.20;100.00;97936.19;5064525;28;20222;-63
2023/02/04 04:12:53;;;;;;;3.03;2.50;;;;;;;2.25;100.00;97936.69;5068961;28;20633;-64
2023/02/04 04:15:20;;;;;;;7.67;2.60;;;;;;;2.19;100.00;97939.75;5063734;28;20463;-63
2023/02/04 04:17:48;;;;;;;5.93;2.40;;;;;;;2.18;100.00;97943.31;5025126;28;20237;-64
2023/02/04 04:20:16;;;;;;;5.60;3.00;;;;;;;2.22;100.00;97955.19;5068196;28;20351;-65
2023/02/04 04:22:44;;;;;;;6.23;2.67;;;;;;;2.19;100.00;97958.03;5028801;28;20207;-65
2023/02/04 04:25:13;;;;;;;6.67;3.13;;;;;;;2.14;100.00;97966.22;5069330;28;20666;-62
2023/02/04 04:27:40;;;;;;;7.10;3.10;;;;;;;2.11;100.00;97979.50;5067000;28;20600;-65
2023/02/04 04:30:09;;;;;;;6.87;2.67;;;;;;;2.17;100.00;97979.06;5065119;28;20337;-63
2023/02/04 04:32:37;;;;;;;4.40;2.47;;;;;;;2.16;100.00;97977.41;5026317;28;20220;-64
2023/02/04 04:35:05;;;;;;;5.67;2.57;;;;;;;2.14;100.00;97981.91;5066100;28;20203;-65
2023/02/04 04:37:34;;;;;;;6.17;2.73;;;;;;;2.11;100.00;97992.59;5038644;28;20412;-63
2023/02/04 04:40:01;;;;;;;6.17;2.87;;;;;;;2.17;100.00;97989.53;5064149;28;20325;-64
2023/02/04 04:42:30;;;;;;;5.73;3.50;;;;;;;2.10;100.00;98005.78;5065482;28;20700;-63
2023/02/04 04:44:58;;;;;;;7.27;2.83;;;;;;;2.09;100.00;98004.94;5074192;28;20678;-64
2023/02/04 04:47:26;;;;;;;6.03;2.70;;;;;;;1.99;100.00;97991.69;5043438;28;20258;-63
2023/02/04 04:49:53;;;;;;;6.43;2.93;;;;;;;2.05;100.00;98006.09;5047608;28;20324;-63
2023/02/04 04:52:21;;;;;;;5.10;2.70;;;;;;;2.03;100.00;98010.59;5045222;28;20412;-62
2023/02/04 04:54:48;;;;;;;8.87;3.23;;;;;;;2.11;100.00;98028.38;5045997;28;20403;-66
2023/02/04 04:57:16;;;;;;;8.27;3.00;;;;;;;2.11;100.00;98036.22;5066633;28;20644;-63
2023/02/04 04:59:45;;;;;;;10.67;3.20;;;;;;;2.09;100.00;98061.63;5061583;28;20264;-64
2023/02/04 05:02:12;;;;;;;3.57;2.53;;;;;;;1.90;100.00;98083.81;5058418;28;20226;-65
2023/02/04 05:04:40;;;;;;;2.80;1.50;;;;;;;1.36;100.00;98116.22;5015273;28;20630;-63
2023/02/04 05:07:07;;;;;;;2.17;1.20;;;;;;;0.77;100.00;98120.88;5043942;28;20823;-66
2023/02/04 05:09:35;;;;;;;2.47;1.07;;;;;;;0.15;100.00;98132.56;5044586;28;20638;-64
2023/02/04 05:12:02;;;;;;;1.63;1.17;;;;;;;-0.10;100.00;98147.13;5059570;28;20667;-66
2023/02/04 05:14:30;;;;;;;1.03;1.03;;;;;;;-0.26;100.00;98152.41;5060943;28;20204;-61
2023/02/04 05:16:59;;;;;;;1.00;1.00;;;;;;;-0.16;100.00;98147.50;5066641;28;20207;-64
2023/02/04 05:19:26;;;;;;;1.03;1.00;;;;;;;-0.11;100.00;98144.59;5019015;28;20218;-61
2023/02/04 05:21:54;;;;;;;1.80;1.13;;;;;;;-0.15;100.00;98164.78;5067323;28;20852;-66
2023/02/04 05:24:22;;;;;;;1.77;1.20;;;;;;;-0.14;100.00;98161.25;5045692;28;20203;-66
2023/02/04 05:26:49;;;;;;;1.20;1.20;;;;;;;-0.16;100.00;98163.13;5049209;28;20486;-67
2023/02/04 05:29:17;;;;;;;0.87;0.87;;;;;;;-0.16;100.00;98173.53;5070176;28;20194;-67
2023/02/04 05:31:44;;;;;;;1.30;1.30;;;;;;;-0.14;100.00;98174.28;5057914;28;20229;-64
2023/02/04 05:34:13;;;;;;;1.00;1.00;;;;;;;-0.18;100.00;98181.44;5017383;28;20298;-66
2023/02/04 05:36:41;;;;;;;2.77;1.37;;;;;;;-0.16;100.00;98181.34;5062687;28;20477;-67
2023/02/04 05:39:08;;;;;;;1.27;1.17;;;;;;;-0.15;100.00;98191.66;5052123;28;20218;-66
2023/02/04 05:41:36;;;;;;;2.57;1.17;;;;;;;-0.10;100.00;98186.19;5040094;28;20257;-65
2023/02/04 05:44:04;;;;;;;1.00;1.00;;;;;;;-0.14;100.00;98187.31;5065645;28;20265;-65
2023/02/04 05:46:33;;;;;;;1.23;1.13;;;;;;;-0.06;100.00;98202.47;5047113;28;20402;-66
2023/02/04 05:49:00;;;;;;;1.00;1.00;;;;;;;-0.04;100.00;98200.59;5062204;28;20202;-67
2023/02/04 05:51:29;;;;;;;1.23;1.20;;;;;;;-0.04;100.00;98216.22;5020250;28;20438;-67
2023/02/04 05:53:57;;;;;;;1.00;1.00;;;;;;;-0.02;100.00;98222.19;5042547;28;20218;-67
2023/02/04 05:56:25;;;;;;;1.40;1.30;;;;;;;-0.01;100.00;98224.72;5040369;28;20515;-66
2023/02/04 05:58:52;;;;;;;1.53;1.40;;;;;;;-0.02;100.00;98230.84;5064251;28;20207;-68
2023/02/04 06:01:20;;;;;;;1.97;1.87;;;;;;;0.01;100.00;98242.03;5039919;28;20222;-66
2023/02/04 06:03:47;;;;;;;2.13;2.03;;;;;;;0.02;100.00;98246.31;5059395;28;20195;-64
2023/02/04 06:06:15;;;;;;;1.80;1.70;;;;;;;0.01;100.00;98253.31;5017135;28;20206;-65
2023/02/04 06:08:44;;;;;;;1.80;1.43;;;;;;;-0.01;100.00;98261.19;5067855;28;20309;-67
2023/02/04 06:11:12;;;;;;;1.43;1.43;;;;;;;-0.02;100.00;98266.50;5031330;28;20226;-66
2023/02/04 06:13:39;;;;;;;1.97;1.80;;;;;;;0.04;100.00;98278.31;5059884;28;20325;-66
2023/02/04 06:16:07;;;;;;;1.87;1.77;;;;;;;0.04;100.00;98289.59;5047533;28;20682;-66
2023/02/04 06:18:35;;;;;;;2.47;2.27;;;;;;;0.06;100.00;98292.09;5061252;28;20207;-67
2023/02/04 06:21:07;;;;;;;2.50;1.73;;;;;;;0.05;100.00;98293.88;5043057;28;20348;-65
2023/02/04 06:23:35;;;;;;;1.50;1.50;;;;;;;0.02;100.00;98298.44;5065089;28;20566;-66
2023/02/04 06:26:04;;;;;;;1.70;1.60;;;;;;;-0.02;100.00;98296.00;5046184;28;20202;-64
2023/02/04 06:28:32;;;;;;;2.10;1.90;;;;;;;-0.05;100.00;98305.75;5051434;28;20206;-66
2023/02/04 06:30:59;;;;;;;2.07;1.97;;;;;;;-0.05;100.00;98313.56;5073240;28;20226;-64
2023/02/04 06:33:27;;;;;;;1.83;1.77;;;;;;;-0.07;100.00;98312.81;5067079;28;20224;-66
2023/02/04 06:35:54;;;;;;;3.00;2.00;;;;;;;-0.12;100.00;98310.50;5067305;28;20194;-65
2023/02/04 06:38:22;;;;;;;2.13;2.03;;;;;;;-0.21;100.00;98311.88;5021464;28;21017;-66
2023/02/04 06:40:52;;;;;;;2.10;2.00;;;;;;;-0.26;100.00;98316.50;5062898;28;20230;-67
2023/02/04 06:43:22;;;;;;;2.13;2.00;;;;;;;-0.39;100.00;98312.91;5031295;28;20272;-65
2023/02/04 06:45:50;;;;;;;1.77;1.67;;;;;;;-0.39;100.00;98321.56;5067221;28;20199;-65
2023/02/04 06:48:18;;;;;;;1.80;1.80;;;;;;;-0.42;100.00;98318.28;5063863;28;20286;-67
2023/02/04 06:50:46;;;;;;;2.30;2.20;;;;;;;-0.33;100.00;98333.41;5060994;28;20229;-66
2023/02/04 06:53:13;;;;;;;2.37;2.03;;;;;;;-0.35;100.00;98338.69;5009955;28;20721;-64
2023/02/04 06:55:41;;;;;;;2.07;1.97;;;;;;;-0.37;100.00;98345.75;5062977;28;20216;-65
2023/02/04 06:58:08;;;;;;;2.40;2.30;;;;;;;-0.32;100.00;98359.34;5026561;28;20244;-65
2023/02/04 07:00:37;;;;;;;3.83;3.53;;;;;;;-0.37;100.00;98360.56;5059997;28;20234;-64
2023/02/04 07:03:06;;;;;;;2.90;2.70;;;;;;;-0.29;100.00;98376.59;5063882;28;20209;-66
2023/02/04 07:05:33;;;;;;;2.77;2.60;;;;;;;-0.25;100.00;98382.44;5064768;28;20559;-63
2023/02/04 07:08:01;;;;;;;3.30;3.10;;;;;;;-0.23;100.00;98386.66;5032265;28;21522;-65
2023/02/04 07:10:29;;;;;;;3.40;3.10;;;;;;;-0.25;100.00;98393.72;5071077;28;20226;-65
2023/02/04 07:12:57;;;;;;;3.67;2.77;;;;;;;-0.25;100.00;98403.28;5029159;28;21581;-66
2023/02/04 07:15:24;;;;;;;3.40;3.20;;;;;;;-0.24;100.00;98402.34;5061325;28;20223;-64
2023/02/04 07:17:53;;;;;;;4.20;3.80;;;;;;;-0.22;100.00;98408.31;5062613;28;20205;-64
2023/02/04 07:20:21;;;;;;;3.10;3.00;;;;;;;-0.18;100.00;98410.69;5063878;28;20227;-66
2023/02/04 07:22:48;;;;;;;2.83;2.73;;;;;;;-0.07;100.00;98415.28;5058608;28;20213;-65
2023/02/04 07:25:16;;;;;;;3.53;3.33;;;;;;;-0.01;100.00;98417.53;5034820;28;20207;-64
2023/02/04 07:27:44;;;;;;;3.27;3.07;;;;;;;-0.03;100.00;98416.78;5029025;28;20195;-64
2023/02/04 07:30:13;;;;;;;3.10;2.90;;;;;;;0.12;100.00;98416.84;5064036;28;20314;-65
2023/02/04 07:32:40;;;;;;;2.50;2.40;;;;;;;0.13;100.00;98429.81;5042548;28;21314;-65
2023/02/04 07:35:10;;;;;;;2.90;2.70;;;;;;;0.09;100.00;98420.47;5067875;28;20220;-64
2023/02/04 07:37:38;;;;;;;2.20;2.10;;;;;;;-0.05;100.00;98436.88;5063250;28;20194;-63
2023/02/04 07:40:07;;;;;;;2.97;2.80;;;;;;;-0.15;100.00;98436.56;5021754;28;20218;-64
2023/02/04 07:42:34;;;;;;;2.93;2.77;;;;;;;-0.20;100.00;98435.13;5048138;28;20206;-65
2023/02/04 07:45:02;;;;;;;2.60;2.50;;;;;;;-0.25;100.00;98437.16;5046017;28;20203;-63
2023/02/04 07:47:29;;;;;;;2.67;2.47;;;;;;;-0.30;100.00;98445.22;5060564;28;20197;-63
2023/02/04 07:49:57;;;;;;;2.83;2.50;;;;;;;-0.26;100.00;98453.69;5066287;28;20222;-64
2023/02/04 07:52:26;;;;;;;3.00;2.80;;;;;;;-0.21;100.00;98465.56;5059348;28;20229;-63
2023/02/04 07:54:53;;;;;;;2.13;2.03;;;;;;;-0.15;100.00;98467.00;5043164;28;20706;-66
2023/02/04 07:57:21;;;;;;;1.97;1.87;;;;;;;-0.05;100.00;98462.09;5069787;28;20205;-62
2023/02/04 07:59:48;;;;;;;2.30;2.20;;;;;;;0.12;100.00;98461.16;5053560;28;20242;-65
2023/02/04 08:02:16;;;;;;;2.67;2.47;;;;;;;-0.06;100.00;98457.81;5067052;28;20677;-62
2023/02/04 08:04:44;;;;;;;1.83;1.80;;;;;;;-0.21;100.00;98467.31;5067544;28;20195;-63
2023/02/04 08:07:11;;;;;;;1.90;1.80;;;;;;;-0.19;100.00;98455.03;5065894;28;20608;-62
2023/02/04 08:09:40;;;;;;;2.60;1.90;;;;;;;-0.16;100.00;98449.69;5070861;28;20198;-64
2023/02/04 08:12:08;;;;;;;2.60;2.40;;;;;;;-0.06;100.00;98461.25;5046572;28;20206;-63
2023/02/04 08:14:36;;;;;;;1.67;1.67;;;;;;;0.01;100.00;98471.34;5053802;28;20230;-64
2023/02/04 08:17:03;;;;;;;1.93;1.90;;;;;;;0.00;100.00;98473.13;5076391;28;20682;-64
2023/02/04 08:19:31;;;;;;;2.30;2.20;;;;;;;0.03;100.00;98479.91;5062731;28;20202;-64
2023/02/04 08:21:58;;;;;;;1.90;1.80;;;;;;;0.02;100.00;98479.09;5066281;28;20213;-64
2023/02/04 08:24:26;;;;;;;2.97;2.70;;;;;;;0.01;100.00;98489.59;5070923;28;20202;-64
2023/02/04 08:26:55;;;;;;;1.63;1.63;;;;;;;0.03;100.00;98492.94;5036249;28;20211;-65
2023/02/04 08:29:24;;;;;;;2.00;1.90;;;;;;;0.14;100.00;98498.41;5049520;28;20202;-62
2023/02/04 08:31:52;;;;;;;1.87;1.77;;;;;;;0.25;100.00;98503.00;5070614;28;20914;-63
2023/02/04 08:34:19;;;;;;;1.90;1.80;;;;;;;0.28;100.00;98493.25;5076783;28;20229;-62
2023/02/04 08:36:47;;;;;;;1.70;1.70;;;;;;;0.28;100.00;98495.88;5068607;28;20599;-64
2023/02/04 08:39:14;;;;;;;1.70;1.67;;;;;;;0.38;100.00;98503.16;5063291;28;20198;-62
2023/02/04 08:41:42;;;;;;;1.90;1.80;;;;;;;0.47;100.00;98514.84;5019037;28;21441;-62
2023/02/04 08:44:11;;;;;;;3.60;3.30;;;;;;;0.57;100.00;98516.00;5051767;28;20202;-64
2023/02/04 08:46:39;;;;;;;1.97;1.93;;;;;;;0.67;100.00;98524.13;5051630;28;22339;-62
2023/02/04 08:49:06;;;;;;;1.83;1.83;;;;;;;0.70;100.00;98523.97;5070198;28;20203;-64
2023/02/04 08:51:34;;;;;;;1.47;1.37;;;;;;;0.76;99.42;98518.38;5070349;28;20229;-61
2023/02/04 08:54:01;;;;;;;1.60;1.60;;;;;;;0.75;96.92;98516.72;5074685;28;20238;-64
2023/02/04 08:56:30;;;;;;;1.70;1.60;;;;;;;0.82;95.37;98520.63;5065587;28;20206;-62
2023/02/04 08:58:57;;;;;;;1.70;1.60;;;;;;;0.98;95.21;98522.38;5024884;28;20325;-64
2023/02/04 09:01:26;;;;;;;1.87;1.77;;;;;;;0.97;92.01;98531.94;5028844;28;20253;-65
2023/02/04 09:03:54;;;;;;;1.70;1.60;;;;;;;0.93;92.45;98529.59;5064966;28;20701;-64
2023/02/04 09:06:21;;;;;;;1.60;1.57;;;;;;;1.04;91.98;98536.81;5064299;28;20224;-62
2023/02/04 09:08:49;;;;;;;1.43;1.43;;;;;;;1.20;92.37;98545.44;5062701;28;20198;-64
2023/02/04 09:11:16;;;;;;;1.60;1.60;;;;;;;1.23;91.18;98523.50;5071283;28;20882;-64
2023/02/04 09:13:44;;;;;;;1.57;1.53;;;;;;;1.52;91.53;98552.25;5006518;28;20451;-62
2023/02/04 09:16:11;;;;;;;1.73;1.73;;;;;;;1.49;90.54;98548.03;5025625;28;20214;-64
2023/02/04 09:18:40;;;;;;;1.43;1.43;;;;;;;1.68;88.87;98549.56;5067162;28;20293;-61
2023/02/04 09:21:08;;;;;;;1.90;1.80;;;;;;;1.73;87.03;98557.94;5070506;28;20221;-62
2023/02/04 09:23:35;;;;;;;2.00;1.90;;;;;;;1.84;87.33;98565.13;5065576;28;20203;-62
2023/02/04 09:26:05;;;;;;;1.50;1.50;;;;;;;2.13;87.70;98562.47;5063364;28;20414;-64
2023/02/04 09:28:32;;;;;;;1.60;1.60;;;;;;;2.28;86.53;98563.28;5004583;28;20872;-62
2023/02/04 09:31:00;;;;;;;2.03;1.93;;;;;;;2.30;86.03;98564.03;5051291;28;20226;-65
2023/02/04 09:33:30;;;;;;;2.37;2.27;;;;;;;2.47;85.58;98557.72;5061760;28;20233;-63
2023/02/04 09:35:59;;;;;;;1.77;1.70;;;;;;;2.67;84.26;98561.66;5075381;28;20654;-64
2023/02/04 09:38:27;;;;;;;2.20;2.00;;;;;;;2.83;83.33;98561.47;5049167;28;20424;-64
2023/02/04 09:40:58;;;;;;;2.70;1.93;;;;;;;2.66;82.15;98570.47;5068806;28;20320;-64
2023/02/04 09:43:28;;;;;;;1.70;1.60;;;;;;;2.49;82.21;98566.31;5024584;28;20225;-62
2023/02/04 09:45:56;;;;;;;1.70;1.60;;;;;;;2.31;82.07;98574.38;5068033;28;20835;-64
2023/02/04 09:48:24;;;;;;;1.60;1.50;;;;;;;2.05;81.32;98576.03;5048658;28;20214;-63
2023/02/04 09:50:52;;;;;;;1.63;1.53;;;;;;;1.99;81.70;98600.78;5068351;28;20437;-64
2023/02/04 09:53:23;;;;;;;1.87;1.77;;;;;;;1.73;81.14;98605.84;5021624;28;21128;-63
2023/02/04 09:55:51;;;;;;;2.00;1.90;;;;;;;1.73;81.62;98626.75;5061708;28;20226;-63
2023/02/04 09:58:21;;;;;;;1.80;1.70;;;;;;;1.67;80.56;98613.19;5020019;28;20217;-64
2023/02/04 10:00:52;;;;;;;2.03;1.93;;;;;;;1.79;80.63;98630.75;5065315;28;20245;-63
2023/02/04 10:03:20;;;;;;;1.57;1.57;;;;;;;1.83;81.38;98634.84;5049027;28;20206;-64
2023/02/04 10:05:49;;;;;;;1.90;1.87;;;;;;;1.98;82.10;98625.22;5067903;28;20194;-64
2023/02/04 10:08:19;;;;;;;1.27;1.27;;;;;;;1.97;80.77;98620.94;5033121;28;20324;-62
2023/02/04 10:10:49;;;;;;;1.50;1.50;;;;;;;2.46;81.22;98629.28;5050478;28;20391;-63
2023/02/04 10:13:18;;;;;;;2.40;1.80;;;;;;;2.70;81.30;98626.03;5021705;28;20229;-62
2023/02/04 10:15:46;;;;;;;1.53;1.43;;;;;;;2.70;78.59;98623.44;5050697;28;20415;-62
2023/02/04 10:18:20;;;;;;;2.10;2.00;;;;;;;2.71;77.47;98628.56;5044234;28;20589;-62
2023/02/04 10:20:47;;;;;;;1.70;1.60;;;;;;;2.82;77.61;98627.88;5048115;28;20418;-64
2023/02/04 10:23:15;;;;;;;1.73;1.63;;;;;;;3.01;78.00;98624.06;5060256;28;20201;-62
2023/02/04 10:25:43;;;;;;;1.70;1.60;;;;;;;2.98;75.11;98613.78;5042844;28;20734;-65
2023/02/04 10:28:12;;;;;;;1.27;1.27;;;;;;;2.40;75.91;98609.59;5018518;28;20206;-62
2023/02/04 10:30:40;;;;;;;1.20;1.20;;;;;;;2.06;75.83;98635.22;5034495;28;20251;-62
2023/02/04 10:33:13;;;;;;;1.40;1.40;;;;;;;2.16;76.69;98628.50;5068209;28;20203;-64
2023/02/04 10:35:45;;;;;;;1.40;1.40;;;;;;;2.21;76.55;98641.28;5056393;28;20451;-64
2023/02/04 10:38:13;;;;;;;1.97;1.87;;;;;;;2.09;76.19;98629.81;5040310;28;20199;-63
2023/02/04 10:40:41;;;;;;;2.50;2.40;;;;;;;2.33;77.84;98633.59;5030282;28;20515;-64
2023/02/04 10:43:10;;;;;;;2.13;2.03;;;;;;;2.58;78.66;98641.59;5070271;28;20257;-65
2023/02/04 10:45:39;;;;;;;1.30;1.30;;;;;;;2.65;77.15;98638.59;5018749;28;20287;-65
2023/02/04 10:48:07;;;;;;;1.50;1.50;;;;;;;3.02;77.04;98628.34;5061853;28;20209;-64
2023/02/04 10:50:35;;;;;;;2.60;2.40;;;;;;;2.62;75.17;98628.31;5042135;28;20621;-62
2023/02/04 10:55:50;;;;;;;2.10;2.00;;;;;;;2.67;75.11;98634.94;5046966;28;20589;-62
2023/02/04 10:58:20;;;;;;;3.10;2.10;;;;;;;2.70;77.51;98640.00;5029918;28;20202;-62
2023/02/04 11:00:49;;;;;;;2.10;2.00;;;;;;;2.90;76.65;98637.84;5029447;28;20227;-60
2023/02/04 11:03:21;;;;;;;1.43;1.43;;;;;;;2.60;76.65;98634.50;5048228;28;20206;-62
2023/02/04 11:05:49;;;;;;;1.40;1.40;;;;;;;2.43;77.78;98638.19;5050409;28;20397;-65
2023/02/04 11:08:21;;;;;;;1.30;1.30;;;;;;;2.31;77.57;98652.84;5072472;28;20198;-63
2023/02/04 11:10:50;;;;;;;1.50;1.50;;;;;;;2.29;78.15;98659.13;5050623;28;20717;-62
2023/02/04 11:13:23;;;;;;;1.30;1.30;;;;;;;2.26;78.22;98661.91;5055584;28;20203;-63
2023/02/04 11:16:09;;;;;;;1.33;1.23;;;;;;;2.20;77.83;98659.69;5043739;28;20227;-65
2023/02/04 11:18:48;;;;;;;1.80;1.70;;;;;;;2.19;77.46;98658.00;5047028;28;20382;-64
2023/02/04 11:21:23;;;;;;;1.40;1.40;;;;;;;2.09;77.02;98658.56;5049440;28;20407;-60
2023/02/04 11:23:51;;;;;;;1.33;1.33;;;;;;;2.20;78.45;98654.44;5068848;28;20201;-64
2023/02/04 11:26:32;;;;;;;1.70;1.67;;;;;;;2.26;76.88;98662.75;5063057;28;20192;-63
2023/02/04 11:29:24;;;;;;;2.80;2.10;;;;;;;2.34;76.81;98656.22;5029825;28;20578;-65
2023/02/04 11:32:01;;;;;;;1.20;1.20;;;;;;;2.54;75.68;98647.13;5070961;28;20218;-65
2023/02/04 11:34:45;;;;;;;1.40;1.40;;;;;;;2.66;75.88;98648.13;5048219;28;20549;-61
2023/02/04 11:37:34;;;;;;;1.43;1.43;;;;;;;2.95;75.11;98641.00;5050055;28;20357;-61
2023/02/04 11:40:12;;;;;;;1.10;1.10;;;;;;;2.85;71.92;98640.78;5072164;28;20728;-64
2023/02/04 11:42:41;;;;;;;1.60;1.50;;;;;;;3.32;73.20;98638.59;5046282;28;20935;-62